Disclaimer

Please do not use the information listed here in-flight or in-navigation, as they are not provided to us by the airports but are provided by volunteers, so they might be outdated.

Search


Regions


Airport information page

Radio informations:
EDMONTON RDO - 126.7 MHz
VDF - 121.9 MHz
RDO - 122.2 MHz
EDMONTON CNTR - 132.87 MHz
MF NELSON RDO - 122.2 MHz

Airport informations:
Latitude: 58° 50' 11.00" N
Longitude: 122° 35' 49.00" W
Elevation: 1253 feet - 382 meters
Operating hours: N/A
Operating agency: Municipal
Timezone: Second Sunday in March at 0200 to first Sunday in November at 0200 local time (Exception Arizona and that portion of Indiana in the Eastern Time Zone)
Fuel: Jet A1+, Jet A1 with icing inhibitor.

Jet B, Wide cut turbine fuel, Without icing inhibitor.

100/130 octane gasoline, leaded, MIL-L-5572F (GREEN)

100/130 MIL Spec, low lead, aviation gasoline (BLUE)

Runway information:
03/21 - 6400 x 200 feet< - >1951 x 61 meters
07/25 - 4068 x 77 feet< - >1240 x 23 meters

Recent METARs:
CYYE 181600Z 09003KT 30SM FEW025 BKN068 M11/M13 A3003 RMK SC1AC7 SC TR SLP203
CYYE 181700Z 06003KT 30SM FEW055 OVC068 OVC260 M11/M13 A3003 RMK SC1AC7CI1 CI TR SLP202
CYYE 181700Z 06003KT 30SM FEW055 OVC068 OVC260 M11/M13 A3003 RMK SC1AC7CI1 CI TR SLP202

Airport on the map: